sensor_id;sensor_type;location;lat;lon;timestamp;P1;durP1;ratioP1;P2;durP2;ratioP2
9485;SDS011;4781;48.776;9.200;2022-09-21T00:01:29;5.45;;;2.50;;
9485;SDS011;4781;48.776;9.200;2022-09-21T00:03:59;5.33;;;2.55;;
9485;SDS011;4781;48.776;9.200;2022-09-21T00:06:30;6.47;;;2.55;;
9485;SDS011;4781;48.776;9.200;2022-09-21T00:09:00;5.80;;;2.33;;
9485;SDS011;4781;48.776;9.200;2022-09-21T00:11:30;5.42;;;2.70;;
9485;SDS011;4781;48.776;9.200;2022-09-21T00:14:05;7.00;;;2.62;;
9485;SDS011;4781;48.776;9.200;2022-09-21T00:16:38;8.45;;;2.62;;
9485;SDS011;4781;48.776;9.200;2022-09-21T00:19:08;6.60;;;3.17;;
9485;SDS011;4781;48.776;9.200;2022-09-21T00:21:37;5.35;;;2.75;;
9485;SDS011;4781;48.776;9.200;2022-09-21T00:24:07;6.20;;;2.75;;
9485;SDS011;4781;48.776;9.200;2022-09-21T00:26:35;5.00;;;2.20;;
9485;SDS011;4781;48.776;9.200;2022-09-21T00:29:04;4.22;;;2.40;;
9485;SDS011;4781;48.776;9.200;2022-09-21T00:31:33;5.37;;;2.50;;
9485;SDS011;4781;48.776;9.200;2022-09-21T00:34:01;5.08;;;2.58;;
9485;SDS011;4781;48.776;9.200;2022-09-21T00:36:32;8.85;;;2.95;;
9485;SDS011;4781;48.776;9.200;2022-09-21T00:39:01;8.40;;;3.05;;
9485;SDS011;4781;48.776;9.200;2022-09-21T00:41:31;7.00;;;3.02;;
9485;SDS011;4781;48.776;9.200;2022-09-21T00:44:46;7.85;;;3.12;;
9485;SDS011;4781;48.776;9.200;2022-09-21T00:47:03;5.90;;;3.12;;
9485;SDS011;4781;48.776;9.200;2022-09-21T00:49:34;6.22;;;2.95;;
9485;SDS011;4781;48.776;9.200;2022-09-21T00:52:04;4.60;;;2.17;;
9485;SDS011;4781;48.776;9.200;2022-09-21T00:54:41;13.83;;;3.35;;
9485;SDS011;4781;48.776;9.200;2022-09-21T00:57:15;5.80;;;2.72;;
9485;SDS011;4781;48.776;9.200;2022-09-21T00:59:47;5.15;;;2.52;;
9485;SDS011;4781;48.776;9.200;2022-09-21T01:02:19;7.40;;;3.08;;
9485;SDS011;4781;48.776;9.200;2022-09-21T01:04:48;6.80;;;2.42;;
9485;SDS011;4781;48.776;9.200;2022-09-21T01:07:20;5.50;;;2.58;;
9485;SDS011;4781;48.776;9.200;2022-09-21T01:09:56;4.35;;;2.20;;
9485;SDS011;4781;48.776;9.200;2022-09-21T01:18:32;5.75;;;2.50;;
9485;SDS011;4781;48.776;9.200;2022-09-21T01:21:22;8.43;;;2.50;;
9485;SDS011;4781;48.776;9.200;2022-09-21T01:26:36;6.00;;;2.65;;
9485;SDS011;4781;48.776;9.200;2022-09-21T01:29:26;5.10;;;2.42;;
9485;SDS011;4781;48.776;9.200;2022-09-21T01:32:13;4.75;;;2.60;;
9485;SDS011;4781;48.776;9.200;2022-09-21T01:34:55;5.25;;;2.30;;
9485;SDS011;4781;48.776;9.200;2022-09-21T01:37:40;5.42;;;2.50;;
9485;SDS011;4781;48.776;9.200;2022-09-21T01:40:23;9.25;;;2.60;;
9485;SDS011;4781;48.776;9.200;2022-09-21T01:43:14;6.47;;;2.87;;
9485;SDS011;4781;48.776;9.200;2022-09-21T01:45:48;5.75;;;2.92;;
9485;SDS011;4781;48.776;9.200;2022-09-21T01:48:19;5.30;;;2.67;;
9485;SDS011;4781;48.776;9.200;2022-09-21T01:50:52;4.17;;;2.20;;
9485;SDS011;4781;48.776;9.200;2022-09-21T01:53:23;5.67;;;2.47;;
9485;SDS011;4781;48.776;9.200;2022-09-21T01:56:18;7.00;;;2.60;;
9485;SDS011;4781;48.776;9.200;2022-09-21T01:59:15;4.60;;;2.30;;
9485;SDS011;4781;48.776;9.200;2022-09-21T02:01:44;5.55;;;2.98;;
9485;SDS011;4781;48.776;9.200;2022-09-21T02:04:17;5.90;;;2.90;;
9485;SDS011;4781;48.776;9.200;2022-09-21T02:06:45;6.15;;;2.77;;
9485;SDS011;4781;48.776;9.200;2022-09-21T02:09:15;6.83;;;3.20;;
9485;SDS011;4781;48.776;9.200;2022-09-21T02:11:46;8.18;;;2.70;;
9485;SDS011;4781;48.776;9.200;2022-09-21T02:14:19;7.80;;;2.62;;
9485;SDS011;4781;48.776;9.200;2022-09-21T02:16:53;6.87;;;3.08;;
9485;SDS011;4781;48.776;9.200;2022-09-21T02:19:44;6.60;;;2.75;;
9485;SDS011;4781;48.776;9.200;2022-09-21T02:22:35;6.58;;;2.47;;
9485;SDS011;4781;48.776;9.200;2022-09-21T02:25:15;8.13;;;2.47;;
9485;SDS011;4781;48.776;9.200;2022-09-21T02:31:13;4.75;;;2.42;;
9485;SDS011;4781;48.776;9.200;2022-09-21T02:33:56;5.62;;;2.90;;
9485;SDS011;4781;48.776;9.200;2022-09-21T02:36:39;6.72;;;2.98;;
9485;SDS011;4781;48.776;9.200;2022-09-21T02:39:20;9.53;;;2.85;;
9485;SDS011;4781;48.776;9.200;2022-09-21T02:44:31;8.18;;;2.60;;
9485;SDS011;4781;48.776;9.200;2022-09-21T02:49:45;8.25;;;3.58;;
9485;SDS011;4781;48.776;9.200;2022-09-21T02:52:13;8.48;;;2.75;;
9485;SDS011;4781;48.776;9.200;2022-09-21T02:54:44;6.60;;;2.92;;
9485;SDS011;4781;48.776;9.200;2022-09-21T02:57:16;8.08;;;3.00;;
9485;SDS011;4781;48.776;9.200;2022-09-21T02:59:48;8.75;;;3.25;;
9485;SDS011;4781;48.776;9.200;2022-09-21T03:02:17;6.80;;;3.05;;
9485;SDS011;4781;48.776;9.200;2022-09-21T03:04:46;6.72;;;3.37;;
9485;SDS011;4781;48.776;9.200;2022-09-21T03:07:15;9.35;;;3.10;;
9485;SDS011;4781;48.776;9.200;2022-09-21T03:09:44;9.23;;;3.60;;
9485;SDS011;4781;48.776;9.200;2022-09-21T03:12:12;7.53;;;3.42;;
9485;SDS011;4781;48.776;9.200;2022-09-21T03:14:42;5.92;;;3.12;;
9485;SDS011;4781;48.776;9.200;2022-09-21T03:17:11;6.95;;;2.90;;
9485;SDS011;4781;48.776;9.200;2022-09-21T03:19:39;6.05;;;2.80;;
9485;SDS011;4781;48.776;9.200;2022-09-21T03:22:07;5.10;;;2.83;;
9485;SDS011;4781;48.776;9.200;2022-09-21T03:24:36;7.15;;;3.25;;
9485;SDS011;4781;48.776;9.200;2022-09-21T03:27:14;5.35;;;2.85;;
9485;SDS011;4781;48.776;9.200;2022-09-21T03:29:45;10.43;;;3.50;;
9485;SDS011;4781;48.776;9.200;2022-09-21T03:32:14;8.23;;;3.55;;
9485;SDS011;4781;48.776;9.200;2022-09-21T03:34:42;8.38;;;3.52;;
9485;SDS011;4781;48.776;9.200;2022-09-21T03:37:11;8.35;;;3.25;;
9485;SDS011;4781;48.776;9.200;2022-09-21T03:39:39;8.40;;;3.83;;
9485;SDS011;4781;48.776;9.200;2022-09-21T03:42:08;6.80;;;3.35;;
9485;SDS011;4781;48.776;9.200;2022-09-21T03:44:38;7.50;;;3.08;;
9485;SDS011;4781;48.776;9.200;2022-09-21T03:47:07;8.83;;;3.25;;
9485;SDS011;4781;48.776;9.200;2022-09-21T03:49:35;5.05;;;2.95;;
9485;SDS011;4781;48.776;9.200;2022-09-21T03:52:03;5.53;;;3.20;;
9485;SDS011;4781;48.776;9.200;2022-09-21T03:54:32;6.53;;;2.90;;
9485;SDS011;4781;48.776;9.200;2022-09-21T03:57:00;6.85;;;3.47;;
9485;SDS011;4781;48.776;9.200;2022-09-21T03:59:28;6.03;;;3.15;;
9485;SDS011;4781;48.776;9.200;2022-09-21T04:01:57;5.90;;;2.95;;
9485;SDS011;4781;48.776;9.200;2022-09-21T04:04:25;7.58;;;3.42;;
9485;SDS011;4781;48.776;9.200;2022-09-21T04:06:54;5.95;;;2.98;;
9485;SDS011;4781;48.776;9.200;2022-09-21T04:09:22;4.87;;;2.65;;
9485;SDS011;4781;48.776;9.200;2022-09-21T04:11:50;7.85;;;3.20;;
9485;SDS011;4781;48.776;9.200;2022-09-21T04:14:19;7.58;;;3.40;;
9485;SDS011;4781;48.776;9.200;2022-09-21T04:16:48;5.97;;;3.05;;
9485;SDS011;4781;48.776;9.200;2022-09-21T04:19:17;8.63;;;3.77;;
9485;SDS011;4781;48.776;9.200;2022-09-21T04:21:47;19.85;;;4.15;;
9485;SDS011;4781;48.776;9.200;2022-09-21T04:24:17;6.60;;;3.33;;
9485;SDS011;4781;48.776;9.200;2022-09-21T04:26:45;7.90;;;2.85;;
9485;SDS011;4781;48.776;9.200;2022-09-21T04:29:14;7.03;;;3.17;;
9485;SDS011;4781;48.776;9.200;2022-09-21T04:31:43;5.33;;;2.95;;
9485;SDS011;4781;48.776;9.200;2022-09-21T04:34:11;5.80;;;3.27;;
9485;SDS011;4781;48.776;9.200;2022-09-21T04:36:40;8.73;;;3.60;;
9485;SDS011;4781;48.776;9.200;2022-09-21T04:39:09;7.60;;;3.22;;
9485;SDS011;4781;48.776;9.200;2022-09-21T04:41:37;7.40;;;3.17;;
9485;SDS011;4781;48.776;9.200;2022-09-21T04:44:07;6.30;;;2.92;;
9485;SDS011;4781;48.776;9.200;2022-09-21T04:46:35;7.25;;;3.30;;
9485;SDS011;4781;48.776;9.200;2022-09-21T04:49:04;6.33;;;3.50;;
9485;SDS011;4781;48.776;9.200;2022-09-21T04:51:33;7.08;;;3.17;;
9485;SDS011;4781;48.776;9.200;2022-09-21T04:54:02;7.75;;;3.47;;
9485;SDS011;4781;48.776;9.200;2022-09-21T04:56:31;6.90;;;3.40;;
9485;SDS011;4781;48.776;9.200;2022-09-21T04:58:59;8.00;;;3.92;;
9485;SDS011;4781;48.776;9.200;2022-09-21T05:01:28;7.80;;;3.27;;
9485;SDS011;4781;48.776;9.200;2022-09-21T05:03:56;7.62;;;3.20;;
9485;SDS011;4781;48.776;9.200;2022-09-21T05:06:27;6.97;;;3.37;;
9485;SDS011;4781;48.776;9.200;2022-09-21T05:08:57;13.78;;;4.37;;
9485;SDS011;4781;48.776;9.200;2022-09-21T05:11:45;6.65;;;3.67;;
9485;SDS011;4781;48.776;9.200;2022-09-21T05:14:13;7.22;;;3.77;;
9485;SDS011;4781;48.776;9.200;2022-09-21T05:16:41;10.48;;;4.67;;
9485;SDS011;4781;48.776;9.200;2022-09-21T05:19:11;8.00;;;3.45;;
9485;SDS011;4781;48.776;9.200;2022-09-21T05:21:40;10.43;;;4.97;;
9485;SDS011;4781;48.776;9.200;2022-09-21T05:24:08;9.33;;;4.35;;
9485;SDS011;4781;48.776;9.200;2022-09-21T05:26:37;10.50;;;4.35;;
9485;SDS011;4781;48.776;9.200;2022-09-21T05:29:05;8.83;;;4.72;;
9485;SDS011;4781;48.776;9.200;2022-09-21T05:31:37;14.47;;;4.80;;
9485;SDS011;4781;48.776;9.200;2022-09-21T05:34:20;9.68;;;4.60;;
9485;SDS011;4781;48.776;9.200;2022-09-21T05:37:02;9.13;;;4.40;;
9485;SDS011;4781;48.776;9.200;2022-09-21T05:39:40;8.30;;;4.78;;
9485;SDS011;4781;48.776;9.200;2022-09-21T05:42:09;10.45;;;4.15;;
9485;SDS011;4781;48.776;9.200;2022-09-21T05:44:38;10.08;;;5.05;;
9485;SDS011;4781;48.776;9.200;2022-09-21T05:47:23;14.70;;;4.72;;
9485;SDS011;4781;48.776;9.200;2022-09-21T05:50:32;9.18;;;4.58;;
9485;SDS011;4781;48.776;9.200;2022-09-21T05:53:14;9.53;;;4.28;;
9485;SDS011;4781;48.776;9.200;2022-09-21T05:56:02;9.25;;;4.37;;
9485;SDS011;4781;48.776;9.200;2022-09-21T05:58:41;8.33;;;4.15;;
9485;SDS011;4781;48.776;9.200;2022-09-21T06:03:48;8.43;;;5.10;;
9485;SDS011;4781;48.776;9.200;2022-09-21T06:06:17;7.87;;;4.42;;
9485;SDS011;4781;48.776;9.200;2022-09-21T06:08:47;9.75;;;3.85;;
9485;SDS011;4781;48.776;9.200;2022-09-21T06:11:15;7.08;;;4.30;;
9485;SDS011;4781;48.776;9.200;2022-09-21T06:13:44;7.83;;;4.25;;
9485;SDS011;4781;48.776;9.200;2022-09-21T06:16:12;8.10;;;4.28;;
9485;SDS011;4781;48.776;9.200;2022-09-21T06:18:41;8.90;;;4.90;;
9485;SDS011;4781;48.776;9.200;2022-09-21T06:21:09;13.35;;;4.97;;
9485;SDS011;4781;48.776;9.200;2022-09-21T06:23:38;10.08;;;5.25;;
9485;SDS011;4781;48.776;9.200;2022-09-21T06:26:06;7.62;;;4.22;;
9485;SDS011;4781;48.776;9.200;2022-09-21T06:28:34;11.35;;;5.22;;
9485;SDS011;4781;48.776;9.200;2022-09-21T06:31:03;8.73;;;4.87;;
9485;SDS011;4781;48.776;9.200;2022-09-21T06:33:31;10.93;;;5.60;;
9485;SDS011;4781;48.776;9.200;2022-09-21T06:36:01;10.20;;;5.03;;
9485;SDS011;4781;48.776;9.200;2022-09-21T06:38:30;10.13;;;5.22;;
9485;SDS011;4781;48.776;9.200;2022-09-21T06:41:00;12.82;;;4.72;;
9485;SDS011;4781;48.776;9.200;2022-09-21T06:43:30;9.55;;;5.08;;
9485;SDS011;4781;48.776;9.200;2022-09-21T06:46:00;13.22;;;5.17;;
9485;SDS011;4781;48.776;9.200;2022-09-21T06:48:30;11.55;;;5.25;;
9485;SDS011;4781;48.776;9.200;2022-09-21T06:51:00;9.30;;;5.25;;
9485;SDS011;4781;48.776;9.200;2022-09-21T06:53:32;14.73;;;5.17;;
9485;SDS011;4781;48.776;9.200;2022-09-21T06:56:04;11.53;;;5.00;;
9485;SDS011;4781;48.776;9.200;2022-09-21T06:58:35;15.48;;;5.50;;
9485;SDS011;4781;48.776;9.200;2022-09-21T07:01:04;11.03;;;5.78;;
9485;SDS011;4781;48.776;9.200;2022-09-21T07:03:35;10.23;;;5.00;;
9485;SDS011;4781;48.776;9.200;2022-09-21T07:06:04;8.95;;;4.97;;
9485;SDS011;4781;48.776;9.200;2022-09-21T07:08:36;12.03;;;6.17;;
9485;SDS011;4781;48.776;9.200;2022-09-21T07:11:04;11.40;;;4.83;;
9485;SDS011;4781;48.776;9.200;2022-09-21T07:13:33;12.58;;;6.22;;
9485;SDS011;4781;48.776;9.200;2022-09-21T07:16:03;11.93;;;5.60;;
9485;SDS011;4781;48.776;9.200;2022-09-21T07:18:32;15.88;;;5.45;;
9485;SDS011;4781;48.776;9.200;2022-09-21T07:21:08;9.30;;;5.10;;
9485;SDS011;4781;48.776;9.200;2022-09-21T07:23:39;9.75;;;5.15;;
9485;SDS011;4781;48.776;9.200;2022-09-21T07:26:09;8.30;;;5.30;;
9485;SDS011;4781;48.776;9.200;2022-09-21T07:28:39;10.03;;;5.12;;
9485;SDS011;4781;48.776;9.200;2022-09-21T07:31:09;11.90;;;4.75;;
9485;SDS011;4781;48.776;9.200;2022-09-21T07:33:43;10.23;;;5.03;;
9485;SDS011;4781;48.776;9.200;2022-09-21T07:36:12;11.78;;;5.00;;
9485;SDS011;4781;48.776;9.200;2022-09-21T07:38:42;18.10;;;5.40;;
9485;SDS011;4781;48.776;9.200;2022-09-21T07:41:11;7.03;;;3.70;;
9485;SDS011;4781;48.776;9.200;2022-09-21T07:43:40;9.40;;;4.12;;
9485;SDS011;4781;48.776;9.200;2022-09-21T07:46:10;10.20;;;4.17;;
9485;SDS011;4781;48.776;9.200;2022-09-21T07:48:40;9.60;;;4.20;;
9485;SDS011;4781;48.776;9.200;2022-09-21T07:51:10;7.28;;;3.83;;
9485;SDS011;4781;48.776;9.200;2022-09-21T07:53:41;8.30;;;3.52;;
9485;SDS011;4781;48.776;9.200;2022-09-21T07:56:11;7.50;;;4.35;;
9485;SDS011;4781;48.776;9.200;2022-09-21T07:58:44;9.43;;;5.00;;
9485;SDS011;4781;48.776;9.200;2022-09-21T08:01:32;7.22;;;3.62;;
9485;SDS011;4781;48.776;9.200;2022-09-21T08:04:08;6.03;;;3.70;;
9485;SDS011;4781;48.776;9.200;2022-09-21T08:06:37;10.53;;;3.77;;
9485;SDS011;4781;48.776;9.200;2022-09-21T08:09:06;7.40;;;3.42;;
9485;SDS011;4781;48.776;9.200;2022-09-21T08:11:34;10.25;;;3.42;;
9485;SDS011;4781;48.776;9.200;2022-09-21T08:14:03;9.08;;;3.90;;
9485;SDS011;4781;48.776;9.200;2022-09-21T08:16:32;12.88;;;3.42;;
9485;SDS011;4781;48.776;9.200;2022-09-21T08:19:00;7.87;;;3.47;;
9485;SDS011;4781;48.776;9.200;2022-09-21T08:21:29;5.85;;;3.33;;
9485;SDS011;4781;48.776;9.200;2022-09-21T08:23:59;7.47;;;3.75;;
9485;SDS011;4781;48.776;9.200;2022-09-21T08:26:27;7.62;;;3.65;;
9485;SDS011;4781;48.776;9.200;2022-09-21T08:28:56;11.88;;;3.85;;
9485;SDS011;4781;48.776;9.200;2022-09-21T08:31:24;12.35;;;4.30;;
9485;SDS011;4781;48.776;9.200;2022-09-21T08:33:53;6.95;;;3.33;;
9485;SDS011;4781;48.776;9.200;2022-09-21T08:36:25;5.65;;;2.70;;
9485;SDS011;4781;48.776;9.200;2022-09-21T08:38:54;7.40;;;3.17;;
9485;SDS011;4781;48.776;9.200;2022-09-21T08:41:34;5.72;;;2.85;;
9485;SDS011;4781;48.776;9.200;2022-09-21T08:44:14;9.00;;;2.90;;
9485;SDS011;4781;48.776;9.200;2022-09-21T08:47:13;5.75;;;3.22;;
9485;SDS011;4781;48.776;9.200;2022-09-21T08:49:52;6.30;;;3.10;;
9485;SDS011;4781;48.776;9.200;2022-09-21T08:52:19;8.53;;;3.30;;
9485;SDS011;4781;48.776;9.200;2022-09-21T08:57:31;9.78;;;2.72;;
9485;SDS011;4781;48.776;9.200;2022-09-21T09:00:01;7.28;;;2.98;;
9485;SDS011;4781;48.776;9.200;2022-09-21T09:11:17;8.60;;;2.95;;
9485;SDS011;4781;48.776;9.200;2022-09-21T09:23:02;6.00;;;2.50;;
9485;SDS011;4781;48.776;9.200;2022-09-21T09:25:49;5.72;;;2.33;;
9485;SDS011;4781;48.776;9.200;2022-09-21T09:28:25;5.92;;;2.17;;
9485;SDS011;4781;48.776;9.200;2022-09-21T09:31:20;5.85;;;2.20;;
9485;SDS011;4781;48.776;9.200;2022-09-21T09:34:00;6.78;;;2.30;;
9485;SDS011;4781;48.776;9.200;2022-09-21T09:36:46;5.87;;;1.82;;
9485;SDS011;4781;48.776;9.200;2022-09-21T09:39:18;3.75;;;1.95;;
9485;SDS011;4781;48.776;9.200;2022-09-21T09:47:38;5.87;;;1.55;;
9485;SDS011;4781;48.776;9.200;2022-09-21T09:50:23;4.20;;;1.52;;
9485;SDS011;4781;48.776;9.200;2022-09-21T09:53:03;3.02;;;1.20;;
9485;SDS011;4781;48.776;9.200;2022-09-21T09:55:36;4.60;;;1.47;;
9485;SDS011;4781;48.776;9.200;2022-09-21T09:58:37;3.22;;;1.45;;
9485;SDS011;4781;48.776;9.200;2022-09-21T10:00:52;2.02;;;1.12;;
9485;SDS011;4781;48.776;9.200;2022-09-21T10:03:22;2.40;;;1.10;;
9485;SDS011;4781;48.776;9.200;2022-09-21T10:05:53;5.45;;;2.08;;
9485;SDS011;4781;48.776;9.200;2022-09-21T10:08:38;2.85;;;1.30;;
9485;SDS011;4781;48.776;9.200;2022-09-21T10:11:08;5.80;;;1.30;;
9485;SDS011;4781;48.776;9.200;2022-09-21T10:13:44;2.72;;;1.17;;
9485;SDS011;4781;48.776;9.200;2022-09-21T10:18:51;2.83;;;1.37;;
9485;SDS011;4781;48.776;9.200;2022-09-21T10:24:05;4.22;;;1.12;;
9485;SDS011;4781;48.776;9.200;2022-09-21T10:26:44;4.33;;;1.60;;
9485;SDS011;4781;48.776;9.200;2022-09-21T10:29:29;2.65;;;1.02;;
9485;SDS011;4781;48.776;9.200;2022-09-21T10:32:17;2.02;;;0.85;;
9485;SDS011;4781;48.776;9.200;2022-09-21T10:35:00;2.27;;;1.00;;
9485;SDS011;4781;48.776;9.200;2022-09-21T10:37:37;2.42;;;0.90;;
9485;SDS011;4781;48.776;9.200;2022-09-21T10:42:56;1.62;;;0.53;;
9485;SDS011;4781;48.776;9.200;2022-09-21T10:45:33;0.80;;;0.47;;
9485;SDS011;4781;48.776;9.200;2022-09-21T10:50:46;3.67;;;1.35;;
9485;SDS011;4781;48.776;9.200;2022-09-21T10:56:04;0.98;;;0.60;;
9485;SDS011;4781;48.776;9.200;2022-09-21T11:01:48;1.37;;;0.60;;
9485;SDS011;4781;48.776;9.200;2022-09-21T11:04:27;3.30;;;0.93;;
9485;SDS011;4781;48.776;9.200;2022-09-21T11:07:32;1.90;;;0.88;;
9485;SDS011;4781;48.776;9.200;2022-09-21T11:12:47;2.22;;;0.50;;
9485;SDS011;4781;48.776;9.200;2022-09-21T11:15:50;3.60;;;0.90;;
9485;SDS011;4781;48.776;9.200;2022-09-21T11:21:46;2.90;;;0.90;;
9485;SDS011;4781;48.776;9.200;2022-09-21T11:24:58;2.85;;;0.90;;
9485;SDS011;4781;48.776;9.200;2022-09-21T11:27:39;3.00;;;0.98;;
9485;SDS011;4781;48.776;9.200;2022-09-21T11:32:51;1.82;;;0.80;;
9485;SDS011;4781;48.776;9.200;2022-09-21T11:38:24;8.98;;;1.30;;
9485;SDS011;4781;48.776;9.200;2022-09-21T11:41:17;2.05;;;0.60;;
9485;SDS011;4781;48.776;9.200;2022-09-21T11:44:07;1.80;;;0.62;;
9485;SDS011;4781;48.776;9.200;2022-09-21T11:47:02;1.98;;;0.70;;
9485;SDS011;4781;48.776;9.200;2022-09-21T12:14:13;1.55;;;0.53;;
9485;SDS011;4781;48.776;9.200;2022-09-21T12:16:56;2.10;;;0.72;;
9485;SDS011;4781;48.776;9.200;2022-09-21T12:23:22;0.75;;;0.55;;
9485;SDS011;4781;48.776;9.200;2022-09-21T12:25:50;1.20;;;0.50;;
9485;SDS011;4781;48.776;9.200;2022-09-21T12:28:27;1.22;;;0.47;;
9485;SDS011;4781;48.776;9.200;2022-09-21T12:31:07;0.55;;;0.37;;
9485;SDS011;4781;48.776;9.200;2022-09-21T12:36:46;1.47;;;0.60;;
9485;SDS011;4781;48.776;9.200;2022-09-21T12:39:43;1.42;;;0.50;;
9485;SDS011;4781;48.776;9.200;2022-09-21T12:42:25;2.40;;;0.78;;
9485;SDS011;4781;48.776;9.200;2022-09-21T12:45:21;0.78;;;0.47;;
9485;SDS011;4781;48.776;9.200;2022-09-21T12:50:35;1.10;;;0.53;;
9485;SDS011;4781;48.776;9.200;2022-09-21T12:53:14;1.35;;;0.55;;
9485;SDS011;4781;48.776;9.200;2022-09-21T12:58:50;1.57;;;0.73;;
9485;SDS011;4781;48.776;9.200;2022-09-21T13:01:43;1.72;;;0.70;;
9485;SDS011;4781;48.776;9.200;2022-09-21T13:10:17;0.93;;;0.60;;
9485;SDS011;4781;48.776;9.200;2022-09-21T13:12:45;3.70;;;0.65;;
9485;SDS011;4781;48.776;9.200;2022-09-21T13:15:26;2.70;;;0.50;;
9485;SDS011;4781;48.776;9.200;2022-09-21T13:18:01;1.20;;;0.70;;
9485;SDS011;4781;48.776;9.200;2022-09-21T13:20:36;3.05;;;0.60;;
9485;SDS011;4781;48.776;9.200;2022-09-21T13:23:13;1.47;;;0.80;;
9485;SDS011;4781;48.776;9.200;2022-09-21T13:25:48;1.25;;;0.50;;
9485;SDS011;4781;48.776;9.200;2022-09-21T13:31:38;2.10;;;0.80;;
9485;SDS011;4781;48.776;9.200;2022-09-21T13:34:20;0.95;;;0.50;;
9485;SDS011;4781;48.776;9.200;2022-09-21T13:42:47;0.90;;;0.42;;
9485;SDS011;4781;48.776;9.200;2022-09-21T13:47:53;1.30;;;0.62;;
9485;SDS011;4781;48.776;9.200;2022-09-21T13:53:26;1.47;;;0.80;;
9485;SDS011;4781;48.776;9.200;2022-09-21T13:56:09;3.67;;;0.50;;
9485;SDS011;4781;48.776;9.200;2022-09-21T13:58:41;3.90;;;0.60;;
9485;SDS011;4781;48.776;9.200;2022-09-21T14:01:14;2.95;;;0.60;;
9485;SDS011;4781;48.776;9.200;2022-09-21T14:03:53;1.25;;;0.50;;
9485;SDS011;4781;48.776;9.200;2022-09-21T14:06:49;3.50;;;0.70;;
9485;SDS011;4781;48.776;9.200;2022-09-21T14:09:21;1.60;;;0.80;;
9485;SDS011;4781;48.776;9.200;2022-09-21T14:12:03;1.47;;;0.50;;
9485;SDS011;4781;48.776;9.200;2022-09-21T14:14:35;1.32;;;0.60;;
9485;SDS011;4781;48.776;9.200;2022-09-21T14:20:41;0.78;;;0.50;;
9485;SDS011;4781;48.776;9.200;2022-09-21T14:23:22;2.37;;;0.70;;
9485;SDS011;4781;48.776;9.200;2022-09-21T14:25:48;2.37;;;0.60;;
9485;SDS011;4781;48.776;9.200;2022-09-21T14:28:36;3.15;;;0.65;;
9485;SDS011;4781;48.776;9.200;2022-09-21T14:31:28;3.55;;;0.70;;
9485;SDS011;4781;48.776;9.200;2022-09-21T14:34:01;1.25;;;0.60;;
9485;SDS011;4781;48.776;9.200;2022-09-21T14:36:36;2.12;;;0.80;;
9485;SDS011;4781;48.776;9.200;2022-09-21T14:39:14;2.05;;;0.88;;
9485;SDS011;4781;48.776;9.200;2022-09-21T14:42:00;1.02;;;0.60;;
9485;SDS011;4781;48.776;9.200;2022-09-21T14:44:40;0.93;;;0.53;;
9485;SDS011;4781;48.776;9.200;2022-09-21T14:52:41;2.42;;;0.57;;
9485;SDS011;4781;48.776;9.200;2022-09-21T15:02:08;0.98;;;0.60;;
9485;SDS011;4781;48.776;9.200;2022-09-21T15:07:48;1.10;;;0.55;;
9485;SDS011;4781;48.776;9.200;2022-09-21T15:14:15;1.32;;;0.70;;
9485;SDS011;4781;48.776;9.200;2022-09-21T15:16:54;1.60;;;0.60;;
9485;SDS011;4781;48.776;9.200;2022-09-21T15:19:26;0.93;;;0.50;;
9485;SDS011;4781;48.776;9.200;2022-09-21T15:22:17;1.80;;;0.72;;
9485;SDS011;4781;48.776;9.200;2022-09-21T15:24:51;3.37;;;0.93;;
9485;SDS011;4781;48.776;9.200;2022-09-21T15:27:26;1.30;;;0.47;;
9485;SDS011;4781;48.776;9.200;2022-09-21T15:30:00;1.72;;;0.60;;
9485;SDS011;4781;48.776;9.200;2022-09-21T15:32:38;1.62;;;0.68;;
9485;SDS011;4781;48.776;9.200;2022-09-21T15:35:23;1.22;;;0.50;;
9485;SDS011;4781;48.776;9.200;2022-09-21T15:37:54;1.32;;;0.40;;
9485;SDS011;4781;48.776;9.200;2022-09-21T15:40:30;1.25;;;0.55;;
9485;SDS011;4781;48.776;9.200;2022-09-21T15:43:02;2.15;;;0.88;;
9485;SDS011;4781;48.776;9.200;2022-09-21T15:45:49;1.95;;;0.82;;
9485;SDS011;4781;48.776;9.200;2022-09-21T15:48:24;1.10;;;0.57;;
9485;SDS011;4781;48.776;9.200;2022-09-21T15:53:43;1.10;;;0.50;;
9485;SDS011;4781;48.776;9.200;2022-09-21T15:56:18;1.65;;;0.70;;
9485;SDS011;4781;48.776;9.200;2022-09-21T15:58:50;0.98;;;0.50;;
9485;SDS011;4781;48.776;9.200;2022-09-21T16:01:26;1.60;;;0.68;;
9485;SDS011;4781;48.776;9.200;2022-09-21T16:04:11;3.10;;;0.80;;
9485;SDS011;4781;48.776;9.200;2022-09-21T16:06:43;1.62;;;0.78;;
9485;SDS011;4781;48.776;9.200;2022-09-21T16:11:56;0.90;;;0.53;;
9485;SDS011;4781;48.776;9.200;2022-09-21T16:14:24;1.47;;;0.70;;
9485;SDS011;4781;48.776;9.200;2022-09-21T16:22:24;1.42;;;0.75;;
9485;SDS011;4781;48.776;9.200;2022-09-21T16:24:55;3.30;;;0.98;;
9485;SDS011;4781;48.776;9.200;2022-09-21T16:27:27;2.25;;;0.60;;
9485;SDS011;4781;48.776;9.200;2022-09-21T16:29:58;1.90;;;0.80;;
9485;SDS011;4781;48.776;9.200;2022-09-21T16:32:30;0.62;;;0.47;;
9485;SDS011;4781;48.776;9.200;2022-09-21T16:37:57;1.00;;;0.60;;
9485;SDS011;4781;48.776;9.200;2022-09-21T16:40:26;0.60;;;0.40;;
9485;SDS011;4781;48.776;9.200;2022-09-21T16:42:55;0.88;;;0.50;;
9485;SDS011;4781;48.776;9.200;2022-09-21T16:45:28;1.45;;;0.75;;
9485;SDS011;4781;48.776;9.200;2022-09-21T16:47:58;1.50;;;0.65;;
9485;SDS011;4781;48.776;9.200;2022-09-21T16:50:28;2.95;;;0.82;;
9485;SDS011;4781;48.776;9.200;2022-09-21T16:52:57;2.67;;;1.10;;
9485;SDS011;4781;48.776;9.200;2022-09-21T16:55:25;3.85;;;1.67;;
9485;SDS011;4781;48.776;9.200;2022-09-21T16:57:54;4.85;;;1.45;;
9485;SDS011;4781;48.776;9.200;2022-09-21T17:00:25;7.27;;;2.50;;
9485;SDS011;4781;48.776;9.200;2022-09-21T17:02:57;3.17;;;1.75;;
9485;SDS011;4781;48.776;9.200;2022-09-21T17:05:25;3.40;;;1.30;;
9485;SDS011;4781;48.776;9.200;2022-09-21T17:07:54;3.87;;;1.72;;
9485;SDS011;4781;48.776;9.200;2022-09-21T17:10:29;3.72;;;1.70;;
9485;SDS011;4781;48.776;9.200;2022-09-21T17:13:17;3.75;;;1.67;;
9485;SDS011;4781;48.776;9.200;2022-09-21T17:15:46;3.62;;;1.30;;
9485;SDS011;4781;48.776;9.200;2022-09-21T17:18:15;3.37;;;1.10;;
9485;SDS011;4781;48.776;9.200;2022-09-21T17:20:43;2.30;;;0.90;;
9485;SDS011;4781;48.776;9.200;2022-09-21T17:23:12;1.75;;;0.80;;
9485;SDS011;4781;48.776;9.200;2022-09-21T17:25:41;1.25;;;0.60;;
9485;SDS011;4781;48.776;9.200;2022-09-21T17:28:22;2.45;;;1.02;;
9485;SDS011;4781;48.776;9.200;2022-09-21T17:30:52;1.87;;;1.02;;
9485;SDS011;4781;48.776;9.200;2022-09-21T17:33:21;9.88;;;4.55;;
9485;SDS011;4781;48.776;9.200;2022-09-21T17:35:50;4.92;;;2.33;;
9485;SDS011;4781;48.776;9.200;2022-09-21T17:38:20;6.25;;;2.70;;
9485;SDS011;4781;48.776;9.200;2022-09-21T17:40:48;3.70;;;1.50;;
9485;SDS011;4781;48.776;9.200;2022-09-21T17:43:34;2.25;;;1.25;;
9485;SDS011;4781;48.776;9.200;2022-09-21T17:46:34;1.80;;;1.00;;
9485;SDS011;4781;48.776;9.200;2022-09-21T17:51:30;1.90;;;0.93;;
9485;SDS011;4781;48.776;9.200;2022-09-21T17:54:16;4.70;;;2.00;;
9485;SDS011;4781;48.776;9.200;2022-09-21T17:56:46;3.92;;;1.92;;
9485;SDS011;4781;48.776;9.200;2022-09-21T17:59:34;3.67;;;1.32;;
9485;SDS011;4781;48.776;9.200;2022-09-21T18:02:23;2.60;;;1.40;;
9485;SDS011;4781;48.776;9.200;2022-09-21T18:04:52;2.72;;;1.30;;
9485;SDS011;4781;48.776;9.200;2022-09-21T18:07:27;4.33;;;1.75;;
9485;SDS011;4781;48.776;9.200;2022-09-21T18:09:56;5.22;;;2.12;;
9485;SDS011;4781;48.776;9.200;2022-09-21T18:12:32;3.35;;;1.42;;
9485;SDS011;4781;48.776;9.200;2022-09-21T18:15:07;2.05;;;0.82;;
9485;SDS011;4781;48.776;9.200;2022-09-21T18:20:40;2.55;;;1.10;;
9485;SDS011;4781;48.776;9.200;2022-09-21T18:25:57;3.75;;;1.40;;
9485;SDS011;4781;48.776;9.200;2022-09-21T18:31:30;2.85;;;1.10;;
9485;SDS011;4781;48.776;9.200;2022-09-21T18:40:27;6.55;;;2.22;;
9485;SDS011;4781;48.776;9.200;2022-09-21T18:46:21;4.15;;;1.17;;
9485;SDS011;4781;48.776;9.200;2022-09-21T18:48:50;3.80;;;1.32;;
9485;SDS011;4781;48.776;9.200;2022-09-21T18:51:28;2.77;;;1.07;;
9485;SDS011;4781;48.776;9.200;2022-09-21T18:54:01;1.75;;;0.90;;
9485;SDS011;4781;48.776;9.200;2022-09-21T18:56:31;1.90;;;1.10;;
9485;SDS011;4781;48.776;9.200;2022-09-21T18:59:02;3.22;;;1.25;;
9485;SDS011;4781;48.776;9.200;2022-09-21T19:01:32;2.08;;;1.10;;
9485;SDS011;4781;48.776;9.200;2022-09-21T19:04:00;1.45;;;0.80;;
9485;SDS011;4781;48.776;9.200;2022-09-21T19:09:34;2.30;;;1.00;;
9485;SDS011;4781;48.776;9.200;2022-09-21T19:15:29;2.22;;;1.10;;